createdAt,value
2019-04-27T00:00:14.595Z,101280.72
2019-04-27T00:02:49.629Z,101274.80
2019-04-27T00:05:32.283Z,101274.30
2019-04-27T00:08:18.938Z,101279.28
2019-04-27T00:11:08.922Z,101272.34
2019-04-27T00:13:41.704Z,101279.09
2019-04-27T00:16:15.516Z,101275.20
2019-04-27T00:19:01.086Z,101279.67
2019-04-27T00:21:43.803Z,101280.82
2019-04-27T00:24:17.124Z,101284.22
2019-04-27T00:26:48.849Z,101282.00
2019-04-27T00:29:20.917Z,101283.08
2019-04-27T00:31:53.367Z,101284.02
2019-04-27T00:34:27.032Z,101280.11
2019-04-27T00:37:16.775Z,101273.05
2019-04-27T00:39:53.325Z,101277.39
2019-04-27T00:42:25.193Z,101276.34
2019-04-27T00:44:57.060Z,101273.25
2019-04-27T00:47:28.920Z,101273.78
2019-04-27T00:50:00.892Z,101273.84
2019-04-27T00:52:34.895Z,101270.39
2019-04-27T00:55:08.217Z,101271.20
2019-04-27T00:57:59.096Z,101269.80
2019-04-27T01:00:44.872Z,101265.95
2019-04-27T01:03:20.720Z,101263.29
2019-04-27T01:05:53.143Z,101257.87
2019-04-27T01:08:24.974Z,101261.19
2019-04-27T01:10:56.830Z,101262.38
2019-04-27T01:13:29.471Z,101267.87
2019-04-27T01:16:01.051Z,101260.95
2019-04-27T01:18:32.936Z,101262.67
2019-04-27T01:21:04.685Z,101256.29
2019-04-27T01:23:38.174Z,101259.33
2019-04-27T01:26:23.862Z,101253.30
2019-04-27T01:29:03.140Z,101258.63
2019-04-27T01:31:34.888Z,101253.93
2019-04-27T01:34:06.710Z,101252.99
2019-04-27T01:36:39.234Z,101254.41
2019-04-27T01:39:12.486Z,101250.44
2019-04-27T01:41:44.347Z,101249.84
2019-04-27T01:44:16.010Z,101247.31
2019-04-27T01:46:48.709Z,101247.48
2019-04-27T01:49:20.447Z,101246.72
2019-04-27T01:51:52.208Z,101243.73
2019-04-27T01:54:26.020Z,101245.14
2019-04-27T01:57:00.686Z,101242.64
2019-04-27T01:59:31.388Z,101245.76
2019-04-27T02:02:04.779Z,101243.16
2019-04-27T02:04:40.851Z,101244.27
2019-04-27T02:07:12.717Z,101248.72
2019-04-27T02:09:44.566Z,101248.09
2019-04-27T02:12:16.428Z,101250.08
2019-04-27T02:14:49.077Z,101244.55
2019-04-27T02:17:21.283Z,101239.35
2019-04-27T02:19:52.931Z,101236.80
2019-04-27T02:22:24.693Z,101228.83
2019-04-27T02:24:56.451Z,101227.68
2019-04-27T02:27:29.953Z,101229.00
2019-04-27T02:30:06.162Z,101233.68
2019-04-27T02:32:39.969Z,101235.00
2019-04-27T02:35:12.811Z,101242.80
2019-04-27T02:37:44.462Z,101237.80
2019-04-27T02:40:42.354Z,101233.03
2019-04-27T02:43:14.896Z,101229.73
2019-04-27T02:45:46.969Z,101233.02
2019-04-27T02:48:20.107Z,101231.53
2019-04-27T02:50:53.434Z,101237.70
2019-04-27T02:53:43.472Z,101236.29
2019-04-27T02:57:03.182Z,101242.64
2019-04-27T02:59:34.942Z,101246.92
2019-04-27T03:02:19.669Z,101247.70
2019-04-27T03:04:51.164Z,101246.83
2019-04-27T03:07:23.117Z,101244.45
2019-04-27T03:09:55.184Z,101240.58
2019-04-27T03:12:29.563Z,101243.91
2019-04-27T03:15:20.490Z,101248.23
2019-04-27T03:17:53.592Z,101247.38
2019-04-27T03:20:36.202Z,101244.67
2019-04-27T03:23:09.774Z,101247.80
2019-04-27T03:26:01.569Z,101244.55
2019-04-27T03:28:33.697Z,101255.48
2019-04-27T03:31:05.500Z,101242.61
2019-04-27T03:33:37.267Z,101243.00
2019-04-27T03:36:12.859Z,101249.33
2019-04-27T03:38:42.567Z,101242.59
2019-04-27T03:41:14.226Z,101250.45
2019-04-27T03:43:45.887Z,101240.71
2019-04-27T03:46:20.203Z,101238.27
2019-04-27T03:48:51.045Z,101235.26
2019-04-27T03:51:30.381Z,101234.53
2019-04-27T03:54:10.699Z,101240.26
2019-04-27T03:56:44.316Z,101228.35
2019-04-27T03:59:20.290Z,101233.19
2019-04-27T04:01:52.428Z,101226.81
2019-04-27T04:04:24.122Z,101225.47
2019-04-27T04:06:59.627Z,101224.93
2019-04-27T04:09:43.515Z,101227.13
2019-04-27T04:12:16.901Z,101235.12
2019-04-27T04:14:49.406Z,101232.44
2019-04-27T04:17:22.970Z,101232.12
2019-04-27T04:20:00.316Z,101230.13
2019-04-27T04:22:30.204Z,101227.61
2019-04-27T04:25:03.173Z,101222.98
2019-04-27T04:27:35.143Z,101221.13
2019-04-27T04:30:11.798Z,101220.28
2019-04-27T04:32:41.005Z,101223.98
2019-04-27T04:35:21.606Z,101224.09
2019-04-27T04:37:53.608Z,101220.47
2019-04-27T04:40:30.702Z,101223.39
2019-04-27T04:43:04.361Z,101217.08
2019-04-27T04:45:50.371Z,101219.75
2019-04-27T04:48:22.199Z,101217.25
2019-04-27T04:50:54.247Z,101221.04
2019-04-27T04:53:26.093Z,101206.20
2019-04-27T04:56:00.119Z,101212.98
2019-04-27T04:58:31.666Z,101210.23
2019-04-27T05:01:03.216Z,101210.53
2019-04-27T05:03:34.964Z,101216.08
2019-04-27T05:06:06.679Z,101213.73
2019-04-27T05:08:39.342Z,101210.65
2019-04-27T05:11:10.985Z,101212.84
2019-04-27T05:13:42.733Z,101205.60
2019-04-27T05:16:14.494Z,101209.05
2019-04-27T05:18:46.257Z,101208.19
2019-04-27T05:21:19.552Z,101212.05
2019-04-27T05:23:51.307Z,101210.42
2019-04-27T05:26:23.274Z,101205.27
2019-04-27T05:28:54.948Z,101208.77
2019-04-27T05:31:26.903Z,101212.86
2019-04-27T05:33:59.342Z,101204.38
2019-04-27T05:36:31.133Z,101209.06
2019-04-27T05:39:02.738Z,101210.73
2019-04-27T05:41:37.646Z,101216.95
2019-04-27T05:44:11.197Z,101218.33
2019-04-27T05:47:05.429Z,101212.28
2019-04-27T05:49:41.078Z,101216.19
2019-04-27T05:55:11.688Z,101219.27
2019-04-27T05:57:43.236Z,101216.17
2019-04-27T06:00:19.180Z,101215.05
2019-04-27T06:02:50.956Z,101207.59
2019-04-27T06:05:23.171Z,101212.77
2019-04-27T06:07:54.836Z,101214.70
2019-04-27T06:10:26.566Z,101215.11
2019-04-27T06:12:59.820Z,101215.58
2019-04-27T06:15:31.517Z,101209.09
2019-04-27T06:18:03.363Z,101212.80
2019-04-27T06:20:35.128Z,101214.49
2019-04-27T06:23:06.886Z,101206.45
2019-04-27T06:25:39.452Z,101209.25
2019-04-27T06:28:11.053Z,101211.23
2019-04-27T06:30:42.873Z,101214.34
2019-04-27T06:33:27.229Z,101209.64
2019-04-27T06:35:49.559Z,101211.74
2019-04-27T06:38:21.279Z,101213.00
2019-04-27T06:40:53.086Z,101209.59
2019-04-27T06:43:24.986Z,101206.41
2019-04-27T06:45:58.610Z,101203.60
2019-04-27T06:48:31.433Z,101208.66
2019-04-27T06:51:05.672Z,101207.81
2019-04-27T06:53:36.796Z,101202.00
2019-04-27T06:58:40.903Z,101200.80
2019-04-27T07:01:12.696Z,101203.31
2019-04-27T07:03:44.555Z,101199.28
2019-04-27T07:06:16.025Z,101198.31
2019-04-27T07:08:49.698Z,101194.50
2019-04-27T07:11:20.963Z,101191.47
2019-04-27T07:13:52.725Z,101188.22
2019-04-27T07:16:24.315Z,101186.52
2019-04-27T07:18:55.834Z,101185.64
2019-04-27T07:21:28.667Z,101191.69
2019-04-27T07:24:00.384Z,101188.66
2019-04-27T07:26:32.239Z,101179.75
2019-04-27T07:29:03.816Z,101175.11
2019-04-27T07:31:35.872Z,101179.52
2019-04-27T07:34:09.311Z,101175.01
2019-04-27T07:36:42.146Z,101174.14
2019-04-27T07:39:14.234Z,101169.23
2019-04-27T07:41:45.974Z,101171.34
2019-04-27T07:44:31.329Z,101170.40
2019-04-27T07:47:16.824Z,101166.04
2019-04-27T07:49:49.627Z,101166.67
2019-04-27T07:52:21.772Z,101165.30
2019-04-27T07:54:54.269Z,101163.38
2019-04-27T07:57:25.826Z,101167.51
2019-04-27T08:03:05.042Z,101158.45
2019-04-27T08:06:16.437Z,101161.11
2019-04-27T08:08:49.217Z,101154.31
2019-04-27T08:11:20.954Z,101151.27
2019-04-27T08:13:52.804Z,101149.10
2019-04-27T08:16:32.267Z,101156.16
2019-04-27T08:19:04.104Z,101152.95
